createdAt,value
2023-04-21T00:00:52.407Z,6.81
2023-04-21T00:03:27.102Z,6.86
2023-04-21T00:05:56.339Z,6.91
2023-04-21T00:11:59.157Z,6.79
2023-04-21T00:14:37.713Z,6.77
2023-04-21T00:17:07.261Z,6.80
2023-04-21T00:34:44.178Z,6.85
2023-04-21T00:37:12.367Z,6.80
2023-04-21T00:39:40.239Z,6.79
2023-04-21T00:42:08.184Z,6.70
2023-04-21T00:44:36.437Z,6.62
2023-04-21T00:47:05.160Z,6.60
2023-04-21T00:49:32.922Z,6.70
2023-04-21T00:52:01.599Z,6.77
2023-04-21T00:54:28.838Z,6.83
2023-04-21T00:56:56.056Z,6.87
2023-04-21T00:59:23.093Z,6.90
2023-04-21T01:01:50.155Z,6.90
2023-04-21T01:04:17.243Z,6.92
2023-04-21T01:06:44.447Z,6.92
2023-04-21T01:09:13.541Z,6.92
2023-04-21T01:11:40.736Z,6.92
2023-04-21T01:14:11.408Z,6.97
2023-04-21T01:16:39.880Z,6.95
2023-04-21T01:19:07.079Z,6.93
2023-04-21T01:21:40.456Z,6.88
2023-04-21T01:24:07.966Z,6.88
2023-04-21T01:30:46.044Z,6.81
2023-04-21T01:33:13.641Z,6.80
2023-04-21T01:35:40.705Z,6.74
2023-04-21T01:38:10.967Z,6.75
2023-04-21T01:40:39.618Z,6.71
2023-04-21T01:43:09.074Z,6.62
2023-04-21T01:45:36.317Z,6.65
2023-04-21T01:48:04.899Z,6.73
2023-04-21T01:50:33.053Z,6.77
2023-04-21T01:52:59.917Z,6.79
2023-04-21T01:56:19.910Z,6.77
2023-04-21T01:58:47.065Z,6.79
2023-04-21T02:01:20.395Z,6.80
2023-04-21T02:03:48.516Z,6.61
2023-04-21T02:06:15.558Z,6.62
2023-04-21T02:08:42.677Z,6.39
2023-04-21T02:11:09.707Z,6.24
2023-04-21T02:13:38.406Z,6.11
2023-04-21T02:16:13.795Z,5.75
2023-04-21T02:18:41.166Z,5.67
2023-04-21T02:21:08.050Z,5.81
2023-04-21T02:23:34.981Z,5.91
2023-04-21T02:26:01.850Z,5.97
2023-04-21T02:28:29.162Z,5.73
2023-04-21T02:30:57.597Z,5.73
2023-04-21T02:33:24.538Z,5.73
2023-04-21T02:35:51.623Z,5.72
2023-04-21T02:38:18.512Z,5.77
2023-04-21T02:40:45.428Z,5.77
2023-04-21T02:43:14.270Z,5.73
2023-04-21T02:45:41.242Z,5.79
2023-04-21T02:48:09.793Z,5.85
2023-04-21T02:50:37.108Z,5.91
2023-04-21T02:53:04.215Z,5.87
2023-04-21T02:55:31.543Z,5.75
2023-04-21T02:57:58.780Z,5.57
2023-04-21T03:00:25.822Z,5.54
2023-04-21T03:03:24.540Z,5.58
2023-04-21T03:05:57.540Z,5.63
2023-04-21T03:08:28.158Z,5.65
2023-04-21T03:11:21.877Z,5.70
2023-04-21T03:14:28.523Z,5.70
2023-04-21T03:18:29.925Z,5.69
2023-04-21T03:21:00.953Z,5.66
2023-04-21T03:23:28.187Z,5.67
2023-04-21T03:25:55.207Z,5.65
2023-04-21T03:28:22.086Z,5.62
2023-04-21T03:30:49.105Z,5.63
2023-04-21T03:33:16.043Z,5.69
2023-04-21T03:35:43.051Z,5.75
2023-04-21T03:38:11.362Z,5.80
2023-04-21T03:40:38.294Z,5.83
2023-04-21T03:43:05.428Z,5.86
2023-04-21T03:45:35.616Z,5.86
2023-04-21T03:48:03.023Z,5.89
2023-04-21T03:50:30.168Z,5.90
2023-04-21T03:52:57.204Z,5.92
2023-04-21T03:55:25.538Z,5.94
2023-04-21T03:57:52.687Z,5.96
2023-04-21T04:00:19.779Z,5.97
2023-04-21T04:02:47.503Z,6.02
2023-04-21T04:05:14.678Z,5.95
2023-04-21T04:07:42.073Z,5.95
2023-04-21T04:10:10.643Z,5.93
2023-04-21T04:12:38.961Z,5.90
2023-04-21T04:15:07.368Z,5.91
2023-04-21T04:17:35.211Z,5.87
2023-04-21T04:20:02.384Z,5.55
2023-04-21T04:23:47.937Z,5.17
2023-04-21T04:26:15.162Z,5.11
2023-04-21T04:28:43.499Z,5.20
2023-04-21T04:31:10.581Z,5.29
2023-04-21T04:33:47.659Z,5.38
2023-04-21T04:36:14.671Z,5.45
2023-04-21T04:38:41.590Z,5.47
2023-04-21T04:41:09.251Z,5.44
2023-04-21T04:43:36.601Z,5.49
2023-04-21T04:46:05.426Z,5.54
2023-04-21T04:48:32.646Z,5.59
2023-04-21T04:50:59.527Z,5.64
2023-04-21T04:53:28.205Z,5.69
2023-04-21T04:55:55.582Z,5.75
2023-04-21T04:58:22.440Z,5.79
2023-04-21T05:00:49.270Z,5.79
2023-04-21T05:03:17.729Z,5.79
2023-04-21T05:05:45.031Z,5.79
2023-04-21T05:08:12.263Z,5.81
2023-04-21T05:10:39.137Z,5.48
2023-04-21T05:13:06.536Z,4.87
2023-04-21T05:15:33.514Z,4.93
2023-04-21T05:18:00.466Z,4.97
2023-04-21T05:20:28.735Z,5.01
2023-04-21T05:22:55.682Z,4.86
2023-04-21T05:25:22.777Z,5.09
2023-04-21T05:27:49.575Z,5.29
2023-04-21T05:30:17.215Z,5.43
2023-04-21T05:32:44.291Z,5.56
2023-04-21T05:35:11.431Z,5.62
2023-04-21T05:37:39.758Z,5.61
2023-04-21T05:40:07.792Z,5.70
2023-04-21T05:42:35.231Z,5.83
2023-04-21T05:45:02.136Z,5.68
2023-04-21T05:47:29.183Z,5.81
2023-04-21T05:49:56.310Z,5.75
2023-04-21T05:52:23.400Z,5.49
2023-04-21T05:54:52.072Z,5.53
2023-04-21T05:57:19.349Z,5.32
2023-04-21T05:59:46.502Z,4.97
2023-04-21T06:02:13.499Z,4.99
2023-04-21T06:04:40.593Z,4.90
2023-04-21T06:07:09.635Z,5.16
2023-04-21T06:09:36.971Z,5.45
2023-04-21T06:12:06.120Z,5.62
2023-04-21T06:14:33.357Z,5.74
2023-04-21T06:17:00.633Z,5.99
2023-04-21T06:19:27.504Z,6.20
2023-04-21T06:21:56.296Z,6.38
2023-04-21T06:24:24.458Z,6.48
2023-04-21T06:26:59.351Z,6.59
2023-04-21T06:29:27.981Z,6.73
2023-04-21T06:31:56.621Z,6.91
2023-04-21T06:34:24.524Z,7.06
2023-04-21T06:36:55.068Z,7.25
2023-04-21T06:39:22.223Z,7.41
2023-04-21T06:41:49.713Z,7.53
2023-04-21T06:44:18.726Z,7.61
2023-04-21T06:46:47.585Z,7.77
2023-04-21T06:49:14.644Z,7.87
2023-04-21T06:51:41.633Z,7.82
2023-04-21T06:54:10.231Z,7.67
2023-04-21T06:56:37.592Z,7.25
2023-04-21T06:59:04.612Z,7.03
2023-04-21T07:01:32.768Z,7.17
2023-04-21T07:04:06.896Z,7.24
2023-04-21T07:06:34.311Z,7.76
2023-04-21T07:09:01.210Z,7.95
2023-04-21T07:11:28.192Z,8.14
2023-04-21T07:13:55.488Z,8.19
2023-04-21T07:16:22.513Z,8.64
2023-04-21T07:18:49.537Z,8.51
2023-04-21T07:21:17.827Z,8.02
2023-04-21T07:23:44.681Z,8.21
2023-04-21T07:26:11.802Z,8.42
2023-04-21T07:29:54.714Z,8.58
2023-04-21T07:32:23.645Z,8.78
2023-04-21T07:34:50.896Z,9.22
2023-04-21T07:37:19.283Z,9.45
2023-04-21T07:39:46.540Z,9.51
2023-04-21T07:42:13.642Z,9.52
2023-04-21T07:44:41.549Z,9.59
2023-04-21T07:50:06.509Z,9.80
2023-04-21T07:52:35.904Z,10.03
2023-04-21T07:55:02.778Z,10.31
2023-04-21T07:57:30.241Z,10.03
2023-04-21T07:59:57.291Z,10.07
2023-04-21T08:02:24.321Z,10.06
2023-04-21T08:04:51.520Z,10.31
2023-04-21T08:07:18.518Z,10.49
2023-04-21T08:09:46.893Z,10.43
2023-04-21T08:12:13.864Z,10.75
2023-04-21T08:14:41.204Z,10.93
2023-04-21T08:17:08.156Z,10.57
2023-04-21T08:19:35.500Z,11.72
2023-04-21T08:22:02.454Z,11.85
2023-04-21T08:24:29.417Z,12.41
2023-04-21T08:26:57.851Z,12.61
2023-04-21T08:29:25.595Z,13.05
2023-04-21T08:31:58.806Z,13.77
2023-04-21T08:34:27.912Z,14.19
2023-04-21T08:36:57.610Z,14.81
2023-04-21T08:39:24.712Z,14.85
2023-04-21T08:41:52.354Z,14.27
2023-04-21T08:44:44.283Z,12.78
2023-04-21T08:49:52.892Z,13.65
2023-04-21T08:52:19.739Z,12.44
2023-04-21T08:54:47.819Z,12.65
2023-04-21T08:57:16.296Z,12.62
2023-04-21T08:59:45.809Z,11.93
2023-04-21T09:02:14.771Z,12.60
2023-04-21T09:04:47.655Z,12.94
2023-04-21T09:07:32.926Z,13.51
2023-04-21T09:10:00.758Z,13.73
2023-04-21T09:12:29.339Z,14.24
2023-04-21T09:14:57.958Z,14.65
2023-04-21T09:17:29.823Z,14.98
2023-04-21T09:19:57.593Z,15.49
2023-04-21T09:22:27.766Z,16.00
2023-04-21T09:24:59.887Z,16.30
2023-04-21T09:27:26.826Z,16.84
2023-04-21T09:29:54.720Z,17.26
2023-04-21T09:32:23.954Z,17.32
2023-04-21T09:34:50.969Z,17.54
2023-04-21T09:37:19.175Z,17.12
2023-04-21T09:40:03.289Z,17.27
2023-04-21T09:42:36.329Z,17.70
2023-04-21T09:48:01.172Z,18.73
2023-04-21T09:53:07.671Z,18.94
2023-04-21T09:55:35.698Z,18.92
2023-04-21T09:58:06.145Z,19.22
2023-04-21T10:00:34.653Z,16.58
2023-04-21T10:03:06.610Z,17.19
2023-04-21T10:05:33.750Z,18.13
2023-04-21T10:08:01.965Z,18.89
2023-04-21T10:10:30.677Z,19.52
2023-04-21T10:12:59.241Z,19.65
2023-04-21T10:15:32.022Z,18.14
2023-04-21T10:18:18.932Z,17.66
2023-04-21T10:20:56.932Z,18.79
2023-04-21T10:23:30.664Z,19.01
2023-04-21T10:26:20.582Z,19.73
2023-04-21T10:28:54.222Z,20.55
2023-04-21T10:31:51.020Z,21.48
2023-04-21T10:34:28.697Z,19.36
2023-04-21T10:37:19.132Z,17.67
2023-04-21T10:39:53.920Z,17.74
2023-04-21T10:42:24.822Z,18.35
2023-04-21T10:45:12.417Z,19.36
2023-04-21T10:47:44.079Z,17.33
2023-04-21T10:50:17.053Z,17.47
2023-04-21T10:52:47.576Z,17.13
2023-04-21T10:55:15.328Z,18.95
2023-04-21T10:57:45.323Z,18.88
2023-04-21T11:00:19.084Z,18.71
2023-04-21T11:02:55.594Z,18.85
2023-04-21T11:05:34.099Z,19.10
2023-04-21T11:08:12.314Z,18.71
2023-04-21T11:10:51.150Z,18.61
2023-04-21T11:13:21.595Z,18.93
2023-04-21T11:16:02.093Z,19.95
2023-04-21T11:18:40.454Z,20.07
2023-04-21T11:21:15.357Z,20.33
2023-04-21T11:23:50.289Z,20.85
2023-04-21T11:26:18.185Z,20.59
2023-04-21T11:28:48.572Z,21.06
2023-04-21T11:31:16.168Z,20.81
2023-04-21T11:33:43.464Z,20.59
2023-04-21T11:36:12.525Z,19.73
2023-04-21T11:38:41.145Z,18.46
2023-04-21T11:41:10.169Z,18.69
2023-04-21T11:43:37.757Z,17.77
2023-04-21T11:46:18.261Z,18.47
2023-04-21T11:48:45.686Z,19.16
2023-04-21T11:51:19.413Z,18.57
2023-04-21T11:53:48.777Z,18.61
2023-04-21T11:56:20.159Z,19.15
2023-04-21T11:58:47.626Z,19.54
2023-04-21T12:01:16.850Z,19.46
2023-04-21T12:03:52.216Z,17.51
2023-04-21T12:06:26.473Z,16.30
2023-04-21T12:08:59.904Z,15.80
2023-04-21T12:11:29.399Z,16.41
2023-04-21T12:13:57.691Z,16.21
2023-04-21T12:16:25.489Z,16.39
2023-04-21T12:18:52.875Z,16.78
2023-04-21T12:21:26.319Z,16.65
2023-04-21T12:23:54.243Z,16.45
2023-04-21T12:26:21.675Z,16.18
2023-04-21T12:28:50.388Z,16.10
2023-04-21T12:31:20.068Z,16.28
2023-04-21T12:33:47.145Z,16.06
2023-04-21T12:36:14.325Z,15.90
2023-04-21T12:38:42.656Z,15.93
2023-04-21T12:41:09.934Z,16.11
2023-04-21T12:43:37.288Z,16.18
2023-04-21T12:46:04.908Z,16.30
2023-04-21T12:48:32.111Z,15.94
2023-04-21T12:50:58.965Z,16.02
2023-04-21T12:53:25.947Z,16.03
2023-04-21T12:56:03.963Z,16.08
2023-04-21T12:58:32.547Z,16.23
2023-04-21T13:00:59.412Z,16.51
2023-04-21T13:03:26.812Z,16.26
2023-04-21T13:05:53.935Z,16.31
2023-04-21T13:08:22.200Z,16.25
2023-04-21T13:10:49.167Z,16.45
2023-04-21T13:13:17.474Z,16.65
2023-04-21T13:15:45.229Z,16.64
2023-04-21T13:18:12.220Z,16.64
2023-04-21T13:20:39.177Z,16.85
2023-04-21T13:23:06.053Z,16.90
2023-04-21T13:25:33.025Z,17.03
2023-04-21T13:28:01.161Z,17.30
2023-04-21T13:30:32.080Z,17.57
2023-04-21T13:32:59.071Z,17.63
2023-04-21T13:35:26.803Z,17.21
2023-04-21T13:37:53.896Z,17.20
2023-04-21T13:40:21.016Z,17.38
2023-04-21T13:42:48.398Z,17.36
2023-04-21T13:45:15.496Z,17.46
2023-04-21T13:47:45.483Z,17.46
2023-04-21T13:50:12.523Z,17.46
2023-04-21T13:52:40.331Z,17.48
2023-04-21T13:55:08.017Z,17.44
2023-04-21T13:57:35.243Z,17.48
2023-04-21T14:00:02.815Z,17.38
2023-04-21T14:02:31.510Z,17.55
2023-04-21T14:05:00.634Z,17.80
2023-04-21T14:07:27.927Z,17.79
2023-04-21T14:09:54.910Z,17.71
2023-04-21T14:12:21.888Z,17.64
2023-04-21T14:14:52.035Z,17.73
2023-04-21T14:17:18.993Z,17.82
2023-04-21T14:19:46.167Z,18.01
2023-04-21T14:22:14.530Z,18.01
2023-04-21T14:24:42.060Z,17.91
2023-04-21T14:27:09.617Z,17.96
2023-04-21T14:29:36.743Z,17.89
2023-04-21T14:32:04.075Z,18.05
2023-04-21T14:34:31.181Z,18.13
2023-04-21T14:36:58.237Z,18.06
2023-04-21T14:39:27.226Z,18.24
2023-04-21T14:41:54.208Z,18.25
2023-04-21T14:44:21.121Z,18.32
2023-04-21T14:46:57.381Z,18.34
2023-04-21T14:55:45.556Z,18.42
2023-04-21T14:58:14.156Z,18.40
2023-04-21T15:04:10.105Z,18.46
2023-04-21T15:07:47.560Z,18.41
2023-04-21T15:13:15.125Z,18.48
2023-04-21T15:45:27.021Z,18.97
2023-04-21T15:47:54.007Z,19.00
2023-04-21T15:50:21.768Z,19.02
2023-04-21T15:52:48.719Z,19.07
2023-04-21T15:55:15.961Z,19.16
2023-04-21T15:57:42.940Z,19.29
2023-04-21T16:38:57.981Z,18.78
2023-04-21T16:48:19.520Z,18.73
2023-04-21T16:50:46.555Z,18.70
2023-04-21T16:53:13.535Z,18.72
2023-04-21T16:55:40.814Z,18.66
2023-04-21T16:58:08.474Z,18.59
2023-04-21T17:00:35.480Z,18.57
2023-04-21T17:03:03.095Z,18.58
2023-04-21T17:05:31.806Z,18.56
2023-04-21T17:07:58.721Z,18.56
2023-04-21T17:10:25.651Z,18.50
2023-04-21T17:12:52.937Z,18.51
2023-04-21T17:15:20.284Z,18.51
2023-04-21T17:17:47.623Z,18.39
2023-04-21T17:20:15.614Z,18.34
2023-04-21T17:22:44.134Z,18.19
2023-04-21T17:25:11.681Z,18.12
2023-04-21T17:27:39.424Z,18.08
2023-04-21T17:30:08.631Z,18.04
2023-04-21T17:32:38.720Z,17.99
2023-04-21T17:35:07.476Z,17.93
2023-04-21T17:37:35.004Z,17.78
2023-04-21T17:40:03.976Z,17.63
2023-04-21T17:42:31.970Z,17.47
2023-04-21T17:44:59.059Z,17.33
2023-04-21T17:47:26.708Z,17.25
2023-04-21T17:49:53.940Z,17.20
2023-04-21T17:52:20.862Z,17.13
2023-04-21T17:54:47.915Z,17.07
2023-04-21T17:57:16.292Z,16.95
2023-04-21T17:59:43.314Z,16.91
2023-04-21T18:02:10.551Z,16.82
2023-04-21T18:04:38.317Z,16.84
2023-04-21T18:07:06.866Z,16.82
2023-04-21T18:09:33.755Z,16.80
2023-04-21T18:12:00.758Z,16.86
2023-04-21T18:14:29.442Z,16.12
2023-04-21T18:16:56.488Z,15.71
2023-04-21T18:19:23.658Z,15.54
2023-04-21T18:21:50.891Z,15.53
2023-04-21T18:24:18.389Z,15.44
2023-04-21T18:26:45.489Z,15.38
2023-04-21T18:29:12.519Z,15.34
2023-04-21T18:31:44.129Z,15.29
2023-04-21T18:34:11.275Z,15.31
2023-04-21T18:36:41.002Z,15.23
2023-04-21T18:39:08.467Z,15.08
2023-04-21T18:41:35.581Z,15.05
2023-04-21T18:44:02.716Z,15.12
2023-04-21T18:46:30.556Z,15.15
2023-04-21T18:48:59.682Z,15.21
2023-04-21T18:51:27.766Z,15.13
2023-04-21T18:53:55.453Z,14.84
2023-04-21T18:56:22.389Z,14.90
2023-04-21T18:58:49.519Z,14.95
2023-04-21T19:01:16.922Z,14.92
2023-04-21T19:03:44.998Z,14.89
2023-04-21T19:06:13.419Z,14.78
2023-04-21T19:08:42.966Z,14.60
2023-04-21T19:11:13.184Z,14.39
2023-04-21T19:13:41.248Z,14.46
2023-04-21T19:16:11.128Z,14.52
2023-04-21T19:18:38.114Z,14.53
2023-04-21T19:21:04.964Z,14.57
2023-04-21T19:23:33.423Z,14.56
2023-04-21T19:26:00.537Z,14.53
2023-04-21T19:28:28.232Z,14.56
2023-04-21T19:30:55.287Z,14.56
2023-04-21T19:33:22.153Z,14.53
2023-04-21T19:35:50.401Z,14.52
2023-04-21T19:38:17.482Z,14.50
2023-04-21T19:40:45.919Z,14.40
2023-04-21T19:43:12.923Z,14.33
2023-04-21T19:45:39.836Z,14.32
2023-04-21T19:52:43.651Z,14.29
2023-04-21T19:55:36.845Z,14.24
2023-04-21T19:58:38.710Z,14.11
2023-04-21T20:01:34.486Z,14.06
2023-04-21T20:04:22.035Z,13.96
2023-04-21T20:07:43.125Z,13.93
2023-04-21T20:10:34.987Z,13.83
2023-04-21T20:13:27.984Z,13.59
2023-04-21T20:19:12.297Z,13.59
2023-04-21T20:22:01.765Z,13.63
2023-04-21T20:24:29.512Z,13.70
2023-04-21T20:26:56.724Z,13.64
2023-04-21T20:29:25.527Z,13.41
2023-04-21T20:31:53.572Z,13.37
2023-04-21T20:34:21.015Z,13.44
2023-04-21T20:36:49.205Z,13.49
2023-04-21T20:39:16.383Z,13.47
2023-04-21T20:41:43.538Z,13.50
2023-04-21T20:44:12.992Z,13.54
2023-04-21T20:46:41.663Z,13.57
2023-04-21T20:49:08.728Z,13.59
2023-04-21T20:51:40.713Z,13.58
2023-04-21T20:54:07.921Z,13.59
2023-04-21T20:56:34.938Z,13.59
2023-04-21T20:59:01.877Z,13.61
2023-04-21T21:01:30.670Z,13.65
2023-04-21T21:04:02.556Z,13.65
2023-04-21T21:06:30.414Z,13.58
2023-04-21T21:08:59.452Z,13.58
2023-04-21T21:11:26.520Z,13.33
2023-04-21T21:13:53.518Z,13.32
2023-04-21T21:16:20.599Z,13.40
2023-04-21T21:18:50.218Z,13.49
2023-04-21T21:21:18.756Z,13.56
2023-04-21T21:23:50.386Z,13.61
2023-04-21T21:26:17.750Z,13.63
2023-04-21T21:28:44.769Z,13.66
2023-04-21T21:31:11.605Z,13.54
2023-04-21T21:33:38.904Z,13.51
2023-04-21T21:36:06.551Z,13.47
2023-04-21T21:38:34.897Z,13.39
2023-04-21T21:41:01.882Z,13.38
2023-04-21T21:43:28.760Z,13.43
2023-04-21T21:45:55.882Z,13.49
2023-04-21T21:48:22.865Z,13.49
2023-04-21T21:50:49.778Z,13.47
2023-04-21T21:53:17.916Z,13.48
2023-04-21T21:55:46.407Z,13.47
2023-04-21T21:58:13.974Z,13.45
2023-04-21T22:00:41.046Z,13.40
2023-04-21T22:03:08.539Z,13.22
2023-04-21T22:05:35.554Z,13.18
2023-04-21T22:08:02.821Z,13.08
2023-04-21T22:10:29.823Z,12.93
2023-04-21T22:12:58.324Z,12.80
2023-04-21T22:15:25.258Z,12.85
2023-04-21T22:17:52.767Z,12.92
2023-04-21T22:20:19.766Z,12.93
2023-04-21T22:22:46.752Z,12.89
2023-04-21T22:25:13.955Z,12.85
2023-04-21T22:27:40.897Z,12.87
2023-04-21T22:30:10.989Z,12.84
2023-04-21T22:32:38.187Z,12.80
2023-04-21T22:35:06.275Z,12.78
2023-04-21T22:37:33.243Z,12.79
2023-04-21T22:40:01.429Z,12.85
2023-04-21T22:42:28.392Z,12.89
2023-04-21T22:44:55.683Z,12.96
2023-04-21T22:47:23.991Z,12.99
2023-04-21T22:49:50.978Z,13.02
2023-04-21T22:52:17.971Z,13.00
2023-04-21T22:54:44.901Z,12.92
2023-04-21T22:57:13.390Z,12.93
2023-04-21T22:59:40.492Z,12.95
2023-04-21T23:02:07.877Z,12.98
2023-04-21T23:04:36.524Z,12.99
2023-04-21T23:07:03.383Z,13.02
2023-04-21T23:09:30.340Z,13.05
2023-04-21T23:11:57.596Z,13.09
2023-04-21T23:14:24.588Z,13.06
2023-04-21T23:16:51.560Z,13.02
2023-04-21T23:19:18.587Z,12.94
2023-04-21T23:21:47.380Z,12.89
2023-04-21T23:24:14.316Z,12.91
2023-04-21T23:26:41.218Z,12.87
2023-04-21T23:29:08.439Z,12.87
2023-04-21T23:31:35.445Z,12.88
2023-04-21T23:34:02.450Z,12.75
2023-04-21T23:36:29.338Z,12.73
2023-04-21T23:38:58.018Z,12.73
2023-04-21T23:41:25.126Z,12.74
2023-04-21T23:43:52.046Z,12.69
2023-04-21T23:46:19.223Z,12.64
2023-04-21T23:48:46.235Z,12.65
2023-04-21T23:51:13.494Z,12.66
2023-04-21T23:53:40.550Z,12.69
2023-04-21T23:56:09.048Z,12.65
2023-04-21T23:58:36.153Z,12.63
